Time;durP1;ratioP1;P1;durP2;ratioP2;P2;SDS_P1;SDS_P2;PMS_P1;PMS_P2;Temp;Humidity;BMP_temperature;BMP_pressure;BME280_temperature;BME280_humidity;BME280_pressure;Samples;Min_cycle;Max_cycle;Signal;HPM_P1;HPM_P2
2021/10/30 00:01:57;;;;;;;;;;;11.10;99.90;;;;;;6132062;23;19905;-76
2021/10/30 00:04:23;;;;;;;;;;;11.10;99.90;;;;;;6133154;23;19905;-76
2021/10/30 00:06:49;;;;;;;;;;;11.00;99.90;;;;;;6106810;23;19928;-76
2021/10/30 00:09:14;;;;;;;;;;;11.00;99.90;;;;;;6131618;23;20409;-77
2021/10/30 00:11:41;;;;;;;;;;;10.90;99.90;;;;;;6127438;23;19909;-77
2021/10/30 00:14:06;;;;;;;;;;;10.90;99.90;;;;;;6122151;23;19934;-76
2021/10/30 00:16:32;;;;;;;;;;;10.80;99.90;;;;;;6099770;23;19905;-76
2021/10/30 00:18:57;;;;;;;;;;;10.80;99.90;;;;;;6126256;23;19905;-77
2021/10/30 00:21:23;;;;;;;;;;;10.70;99.90;;;;;;6126901;23;19905;-76
2021/10/30 00:23:49;;;;;;;;;;;10.70;99.90;;;;;;6128572;23;20376;-76
2021/10/30 00:26:15;;;;;;;;;;;10.70;99.90;;;;;;6101450;23;19909;-76
2021/10/30 00:28:40;;;;;;;;;;;10.70;99.90;;;;;;6127237;23;19905;-76
2021/10/30 00:31:06;;;;;;;;;;;10.60;99.90;;;;;;6127081;23;19971;-76
2021/10/30 00:33:32;;;;;;;;;;;10.60;99.90;;;;;;6126376;23;19987;-76
2021/10/30 00:35:57;;;;;;;;;;;10.50;99.90;;;;;;6125760;23;19921;-76
2021/10/30 00:38:23;;;;;;;;;;;10.50;99.90;;;;;;6127689;23;19956;-77
2021/10/30 00:40:49;;;;;;;;;;;10.50;99.90;;;;;;6125376;23;19916;-76
2021/10/30 00:43:15;;;;;;;;;;;10.50;99.90;;;;;;6127423;23;19916;-76
2021/10/30 00:45:44;;;;;;;;;;;10.50;99.90;;;;;;6127216;23;19909;-76
2021/10/30 00:48:09;;;;;;;;;;;10.50;99.90;;;;;;6101232;23;20200;-76
2021/10/30 00:50:35;;;;;;;;;;;10.50;99.90;;;;;;6127406;23;19912;-76
2021/10/30 00:53:01;;;;;;;;;;;10.60;99.90;;;;;;6127277;23;20397;-77
2021/10/30 00:55:27;;;;;;;;;;;10.60;99.90;;;;;;6102427;23;19909;-76
2021/10/30 00:57:54;;;;;;;;;;;10.70;99.90;;;;;;6127011;23;19992;-76
2021/10/30 01:00:20;;;;;;;;;;;10.60;99.90;;;;;;6128093;23;19986;-76
2021/10/30 01:02:45;;;;;;;;;;;10.60;99.90;;;;;;6128051;23;19956;-76
2021/10/30 01:05:11;;;;;;;;;;;10.70;99.90;;;;;;6102106;23;19980;-76
2021/10/30 01:07:37;;;;;;;;;;;10.70;99.90;;;;;;6127528;23;20322;-77
2021/10/30 01:10:03;;;;;;;;;;;10.60;99.90;;;;;;6126989;23;19988;-77
2021/10/30 01:12:28;;;;;;;;;;;10.60;99.90;;;;;;6126206;23;20338;-76
2021/10/30 01:14:54;;;;;;;;;;;10.50;99.90;;;;;;6127077;23;20089;-76
2021/10/30 01:17:20;;;;;;;;;;;10.50;99.90;;;;;;6127241;23;19916;-76
2021/10/30 01:19:50;;;;;;;;;;;10.40;99.90;;;;;;6102038;23;19960;-76
2021/10/30 01:22:15;;;;;;;;;;;10.40;99.90;;;;;;6101496;23;19984;-76
2021/10/30 01:24:41;;;;;;;;;;;10.40;99.90;;;;;;6127520;23;20131;-77
2021/10/30 01:27:06;;;;;;;;;;;10.50;99.90;;;;;;6126079;23;20333;-76
2021/10/30 01:29:32;;;;;;;;;;;10.50;99.90;;;;;;6128189;23;19939;-77
2021/10/30 01:31:58;;;;;;;;;;;10.40;99.90;;;;;;6127084;23;19940;-76
2021/10/30 01:34:27;;;;;;;;;;;10.40;99.90;;;;;;6127553;23;19908;-76
2021/10/30 01:36:53;;;;;;;;;;;10.50;99.90;;;;;;6124406;23;19917;-77
2021/10/30 01:39:19;;;;;;;;;;;10.50;99.90;;;;;;6100541;23;19905;-76
2021/10/30 01:41:44;;;;;;;;;;;10.50;99.90;;;;;;6125740;23;19909;-77
2021/10/30 01:44:11;;;;;;;;;;;10.50;99.90;;;;;;6127150;23;19918;-77
2021/10/30 01:46:36;;;;;;;;;;;10.50;99.90;;;;;;6128500;23;19939;-77
2021/10/30 01:49:02;;;;;;;;;;;10.50;99.90;;;;;;6127279;23;19910;-76
2021/10/30 01:51:28;;;;;;;;;;;10.50;99.90;;;;;;6126980;23;19909;-76
2021/10/30 01:53:55;;;;;;;;;;;10.40;99.90;;;;;;6126249;23;19953;-76
2021/10/30 01:56:21;;;;;;;;;;;10.40;99.90;;;;;;6098777;23;19909;-76
2021/10/30 01:58:46;;;;;;;;;;;10.40;99.90;;;;;;6124735;23;20318;-76
2021/10/30 02:01:12;;;;;;;;;;;10.40;99.90;;;;;;6124373;23;19931;-76
2021/10/30 02:03:38;;;;;;;;;;;10.40;99.90;;;;;;6134556;23;19905;-77
2021/10/30 02:06:04;;;;;;;;;;;10.40;99.90;;;;;;6138789;23;20314;-76
2021/10/30 02:08:30;;;;;;;;;;;10.40;99.90;;;;;;6138849;23;19920;-76
2021/10/30 02:10:56;;;;;;;;;;;10.40;99.90;;;;;;6112685;23;19905;-77
2021/10/30 02:13:22;;;;;;;;;;;10.40;99.90;;;;;;6137683;23;19905;-76
2021/10/30 02:15:48;;;;;;;;;;;10.40;99.90;;;;;;6100874;23;19988;-76
2021/10/30 02:18:14;;;;;;;;;;;10.30;99.90;;;;;;6100445;23;20241;-77
2021/10/30 02:20:40;;;;;;;;;;;10.30;99.90;;;;;;6100562;23;19905;-76
2021/10/30 02:23:05;;;;;;;;;;;10.30;99.90;;;;;;6126376;23;20401;-76
2021/10/30 02:25:31;;;;;;;;;;;10.40;99.90;;;;;;6126254;23;19987;-76
2021/10/30 02:27:57;;;;;;;;;;;10.40;99.90;;;;;;6125853;23;20237;-77
2021/10/30 02:30:22;;;;;;;;;;;10.40;99.90;;;;;;6125527;23;19913;-76
2021/10/30 02:32:48;;;;;;;;;;;10.30;99.90;;;;;;6125262;23;19905;-77
2021/10/30 02:35:14;;;;;;;;;;;10.30;99.90;;;;;;6126849;23;19909;-76
2021/10/30 02:37:40;;;;;;;;;;;10.30;99.90;;;;;;6125471;23;19909;-77
2021/10/30 02:40:07;;;;;;;;;;;10.30;99.90;;;;;;6125577;23;20222;-77
2021/10/30 02:42:33;;;;;;;;;;;10.30;99.90;;;;;;6125931;23;19909;-76
2021/10/30 02:45:00;;;;;;;;;;;10.20;99.90;;;;;;6127254;23;19909;-76
2021/10/30 02:47:26;;;;;;;;;;;10.20;99.90;;;;;;6125959;23;19905;-76
2021/10/30 02:49:52;;;;;;;;;;;10.10;99.90;;;;;;6126513;23;20032;-76
2021/10/30 02:52:17;;;;;;;;;;;10.20;99.90;;;;;;6126030;23;19929;-76
2021/10/30 02:54:43;;;;;;;;;;;10.20;99.90;;;;;;6127436;23;19917;-76
2021/10/30 02:57:08;;;;;;;;;;;10.30;99.90;;;;;;6126240;23;19911;-76
2021/10/30 02:59:34;;;;;;;;;;;10.30;99.90;;;;;;6126329;23;20283;-76
2021/10/30 03:02:00;;;;;;;;;;;10.30;99.90;;;;;;6126658;23;19939;-77
2021/10/30 03:04:25;;;;;;;;;;;10.30;99.90;;;;;;6100326;23;20207;-77
2021/10/30 03:06:51;;;;;;;;;;;10.50;99.90;;;;;;6124824;23;19905;-77
2021/10/30 03:09:17;;;;;;;;;;;10.60;99.90;;;;;;6100281;23;19911;-78
2021/10/30 03:11:43;;;;;;;;;;;10.70;99.90;;;;;;6126390;23;19989;-76
2021/10/30 03:14:08;;;;;;;;;;;10.80;99.90;;;;;;6126187;23;19920;-77
2021/10/30 03:16:34;;;;;;;;;;;10.90;99.90;;;;;;6125991;23;19904;-77
2021/10/30 03:19:00;;;;;;;;;;;11.00;99.90;;;;;;6124683;23;19905;-77
2021/10/30 03:21:25;;;;;;;;;;;11.00;99.90;;;;;;6124189;23;20300;-76
2021/10/30 03:23:51;;;;;;;;;;;11.10;99.90;;;;;;6123143;23;19905;-76
2021/10/30 03:26:17;;;;;;;;;;;11.10;99.90;;;;;;6123542;23;19940;-76
2021/10/30 03:28:43;;;;;;;;;;;11.00;99.90;;;;;;6124011;23;19908;-76
2021/10/30 03:31:08;;;;;;;;;;;11.00;99.90;;;;;;6125453;23;19905;-76
2021/10/30 03:33:34;;;;;;;;;;;11.10;99.90;;;;;;6121635;23;19944;-76
2021/10/30 03:35:59;;;;;;;;;;;11.10;99.90;;;;;;6099460;23;19913;-76
2021/10/30 03:38:25;;;;;;;;;;;11.10;99.90;;;;;;6123757;23;19912;-76
2021/10/30 03:40:51;;;;;;;;;;;11.10;99.90;;;;;;6125353;23;19905;-76
2021/10/30 03:43:17;;;;;;;;;;;11.10;99.90;;;;;;6122761;23;19944;-77
2021/10/30 03:45:43;;;;;;;;;;;11.20;99.90;;;;;;6123936;23;20362;-76
2021/10/30 03:48:08;;;;;;;;;;;11.20;99.90;;;;;;6123651;23;19905;-76
2021/10/30 03:50:37;;;;;;;;;;;11.10;99.90;;;;;;6122167;23;20214;-77
2021/10/30 03:53:04;;;;;;;;;;;11.10;99.90;;;;;;6125257;23;19947;-76
2021/10/30 03:55:30;;;;;;;;;;;11.00;99.90;;;;;;6126816;23;20393;-77
2021/10/30 03:57:56;;;;;;;;;;;11.10;99.90;;;;;;6127994;23;19909;-76
2021/10/30 04:00:21;;;;;;;;;;;11.10;99.90;;;;;;6128058;23;19905;-78
2021/10/30 04:02:47;;;;;;;;;;;11.00;99.90;;;;;;6102482;23;20165;-76
2021/10/30 04:05:13;;;;;;;;;;;11.00;99.90;;;;;;6126457;23;19909;-79
2021/10/30 04:07:39;;;;;;;;;;;11.10;99.90;;;;;;6100625;23;20285;-76
2021/10/30 04:10:05;;;;;;;;;;;11.10;99.90;;;;;;6126857;23;19912;-76
2021/10/30 04:12:30;;;;;;;;;;;11.10;99.90;;;;;;6123710;23;19920;-76
2021/10/30 04:14:56;;;;;;;;;;;11.00;99.90;;;;;;6121608;23;20557;-76
2021/10/30 04:17:22;;;;;;;;;;;11.00;99.90;;;;;;6121815;23;19905;-76
2021/10/30 04:19:47;;;;;;;;;;;10.90;99.90;;;;;;6095766;23;19909;-75
2021/10/30 04:22:13;;;;;;;;;;;10.90;99.90;;;;;;6095961;23;19913;-76
2021/10/30 04:24:38;;;;;;;;;;;10.90;99.90;;;;;;6095536;23;19909;-76
2021/10/30 04:27:04;;;;;;;;;;;10.80;99.90;;;;;;6121678;23;19909;-76
2021/10/30 04:29:30;;;;;;;;;;;10.80;99.90;;;;;;6123555;23;19905;-76
2021/10/30 04:31:58;;;;;;;;;;;10.70;99.90;;;;;;6122396;23;19954;-77
2021/10/30 04:34:34;;;;;;;;;;;10.70;99.90;;;;;;6126870;23;19909;-77
2021/10/30 04:37:02;;;;;;;;;;;10.70;99.90;;;;;;6100598;23;19936;-75
2021/10/30 04:39:28;;;;;;;;;;;10.60;99.90;;;;;;6127081;23;19905;-75
2021/10/30 04:41:53;;;;;;;;;;;10.60;99.90;;;;;;6126084;23;19919;-76
2021/10/30 04:44:19;;;;;;;;;;;10.70;99.90;;;;;;6126476;23;19944;-76
2021/10/30 04:46:44;;;;;;;;;;;10.60;99.90;;;;;;6126632;23;19909;-76
2021/10/30 04:49:10;;;;;;;;;;;10.60;99.90;;;;;;6125619;23;19912;-76
2021/10/30 04:51:36;;;;;;;;;;;10.50;99.90;;;;;;6126198;23;19915;-76
2021/10/30 04:54:01;;;;;;;;;;;10.50;99.90;;;;;;6126630;23;19952;-75
2021/10/30 04:56:27;;;;;;;;;;;10.50;99.90;;;;;;6125654;23;20330;-76
2021/10/30 04:58:53;;;;;;;;;;;10.40;99.90;;;;;;6125613;23;19915;-77
2021/10/30 05:01:18;;;;;;;;;;;10.40;99.90;;;;;;6127580;23;19929;-76
2021/10/30 05:03:44;;;;;;;;;;;10.30;99.90;;;;;;6127314;23;19905;-76
2021/10/30 05:06:10;;;;;;;;;;;10.20;99.90;;;;;;6127243;23;20245;-76
2021/10/30 05:08:37;;;;;;;;;;;10.10;99.90;;;;;;6126931;23;19905;-76
2021/10/30 05:11:02;;;;;;;;;;;10.00;99.90;;;;;;6100681;23;19923;-76
2021/10/30 05:13:28;;;;;;;;;;;9.90;99.90;;;;;;6126826;23;19960;-76
2021/10/30 05:15:54;;;;;;;;;;;9.90;99.90;;;;;;6127143;23;19909;-77
2021/10/30 05:18:21;;;;;;;;;;;9.80;99.90;;;;;;6100947;23;19964;-76
2021/10/30 05:20:47;;;;;;;;;;;9.80;99.90;;;;;;6127863;23;19912;-76
2021/10/30 05:23:13;;;;;;;;;;;9.80;99.90;;;;;;6126797;23;19909;-77
2021/10/30 05:25:38;;;;;;;;;;;9.80;99.90;;;;;;6127299;23;19905;-76
2021/10/30 05:28:04;;;;;;;;;;;9.80;99.90;;;;;;6126886;23;19905;-76
2021/10/30 05:30:29;;;;;;;;;;;9.80;99.90;;;;;;6126604;23;19905;-76
2021/10/30 05:32:55;;;;;;;;;;;9.70;99.90;;;;;;6126445;23;19933;-78
2021/10/30 05:35:21;;;;;;;;;;;9.60;99.90;;;;;;6127059;23;19913;-76
2021/10/30 05:37:46;;;;;;;;;;;9.40;99.90;;;;;;6126847;23;19909;-75
2021/10/30 05:40:12;;;;;;;;;;;9.30;99.90;;;;;;6127030;23;20272;-76
2021/10/30 05:42:40;;;;;;;;;;;9.20;99.90;;;;;;6127723;23;19905;-76
2021/10/30 05:45:07;;;;;;;;;;;9.20;99.90;;;;;;6127023;23;20017;-76
2021/10/30 05:47:34;;;;;;;;;;;9.20;99.90;;;;;;6127200;23;19909;-76
2021/10/30 05:49:59;;;;;;;;;;;9.10;99.90;;;;;;6127257;23;19952;-76
2021/10/30 05:52:25;;;;;;;;;;;9.10;99.90;;;;;;6128681;23;19940;-76
2021/10/30 05:54:51;;;;;;;;;;;9.00;99.90;;;;;;6101137;23;19983;-76
2021/10/30 05:57:16;;;;;;;;;;;9.00;99.90;;;;;;6124395;23;19928;-76
2021/10/30 05:59:42;;;;;;;;;;;9.00;99.90;;;;;;6100345;23;19976;-76
2021/10/30 06:02:11;;;;;;;;;;;9.00;99.90;;;;;;6127450;23;20285;-77
2021/10/30 06:04:37;;;;;;;;;;;9.00;99.90;;;;;;6126735;23;19905;-76
2021/10/30 06:07:03;;;;;;;;;;;8.90;99.90;;;;;;6125173;23;19909;-76
2021/10/30 06:09:28;;;;;;;;;;;8.90;99.90;;;;;;6127200;23;20341;-76
2021/10/30 06:11:54;;;;;;;;;;;8.90;99.90;;;;;;6125947;23;19909;-76
2021/10/30 06:14:20;;;;;;;;;;;8.90;99.90;;;;;;6099700;23;19971;-75
2021/10/30 06:16:46;;;;;;;;;;;9.00;99.90;;;;;;6124339;23;19912;-76
2021/10/30 06:19:11;;;;;;;;;;;9.20;99.90;;;;;;6125417;23;20380;-76
2021/10/30 06:21:37;;;;;;;;;;;9.40;99.90;;;;;;6125448;23;19912;-75
2021/10/30 06:24:03;;;;;;;;;;;9.40;99.90;;;;;;6126293;23;19909;-76
2021/10/30 06:26:29;;;;;;;;;;;9.40;99.90;;;;;;6100531;23;19913;-76
2021/10/30 06:28:55;;;;;;;;;;;9.40;99.90;;;;;;6124823;23;19949;-75
2021/10/30 06:31:21;;;;;;;;;;;9.50;99.90;;;;;;6124958;23;19905;-76
2021/10/30 06:33:47;;;;;;;;;;;9.50;99.90;;;;;;6099428;23;20318;-76
2021/10/30 06:36:13;;;;;;;;;;;9.50;99.90;;;;;;6125840;23;19921;-76
2021/10/30 06:38:38;;;;;;;;;;;9.50;99.90;;;;;;6124504;23;19944;-76
2021/10/30 06:41:06;;;;;;;;;;;9.70;99.90;;;;;;6125634;23;19984;-76
2021/10/30 06:43:32;;;;;;;;;;;9.80;99.90;;;;;;6099838;23;19909;-76
2021/10/30 06:45:58;;;;;;;;;;;9.90;99.90;;;;;;6125533;23;19962;-76
2021/10/30 06:48:24;;;;;;;;;;;10.00;99.90;;;;;;6099272;23;19905;-76
2021/10/30 06:50:51;;;;;;;;;;;10.10;99.90;;;;;;6099683;23;19956;-76
2021/10/30 06:53:16;;;;;;;;;;;10.10;99.90;;;;;;6099700;23;19984;-76
2021/10/30 06:55:43;;;;;;;;;;;10.20;99.90;;;;;;6125161;23;19969;-76
2021/10/30 06:58:09;;;;;;;;;;;10.30;99.90;;;;;;6125846;23;19905;-76
2021/10/30 07:00:34;;;;;;;;;;;10.30;99.90;;;;;;6123888;23;19987;-76
2021/10/30 07:03:00;;;;;;;;;;;10.30;99.90;;;;;;6125100;23;19924;-76
2021/10/30 07:05:26;;;;;;;;;;;10.40;99.90;;;;;;6124650;23;19905;-76
2021/10/30 07:07:51;;;;;;;;;;;10.50;99.90;;;;;;6124552;23;19976;-76
2021/10/30 07:10:17;;;;;;;;;;;10.60;99.90;;;;;;6125446;23;19908;-77
2021/10/30 07:12:43;;;;;;;;;;;10.70;99.90;;;;;;6125740;23;19909;-76
2021/10/30 07:15:10;;;;;;;;;;;10.80;99.90;;;;;;6099030;23;19920;-76
2021/10/30 07:17:36;;;;;;;;;;;10.90;99.90;;;;;;6125222;23;20330;-76
2021/10/30 07:20:02;;;;;;;;;;;11.00;99.90;;;;;;6100473;23;19905;-77
2021/10/30 07:22:28;;;;;;;;;;;11.20;99.90;;;;;;6126188;23;19959;-76
2021/10/30 07:24:53;;;;;;;;;;;11.30;99.90;;;;;;6126677;23;19932;-77
2021/10/30 07:27:19;;;;;;;;;;;11.50;99.90;;;;;;6126087;23;19959;-76
2021/10/30 07:29:48;;;;;;;;;;;11.60;99.90;;;;;;6126080;23;19988;-76
2021/10/30 07:32:15;;;;;;;;;;;11.60;99.90;;;;;;6125947;23;19909;-77
2021/10/30 07:34:41;;;;;;;;;;;11.80;99.90;;;;;;6126306;23;20313;-76
2021/10/30 07:37:06;;;;;;;;;;;11.80;99.90;;;;;;6127605;23;19983;-77
2021/10/30 07:39:32;;;;;;;;;;;12.00;99.90;;;;;;6128768;23;20257;-77
2021/10/30 07:41:57;;;;;;;;;;;12.10;99.90;;;;;;6127489;23;19905;-76
2021/10/30 07:44:23;;;;;;;;;;;12.30;99.90;;;;;;6135548;23;19909;-78
2021/10/30 07:46:49;;;;;;;;;;;12.50;99.90;;;;;;6105405;23;19909;-77
2021/10/30 07:49:14;;;;;;;;;;;12.60;99.90;;;;;;6134980;23;19921;-78
2021/10/30 07:51:40;;;;;;;;;;;12.70;99.90;;;;;;6136235;23;19905;-78
2021/10/30 07:54:05;;;;;;;;;;;12.80;99.90;;;;;;6107850;23;19959;-77
2021/10/30 07:56:31;;;;;;;;;;;12.90;99.90;;;;;;6131543;23;19912;-78
2021/10/30 07:58:56;;;;;;;;;;;13.10;99.90;;;;;;6132027;23;19905;-77
2021/10/30 08:01:22;;;;;;;;;;;13.20;99.90;;;;;;6132718;23;20156;-77
2021/10/30 08:03:48;;;;;;;;;;;13.20;99.90;;;;;;6132305;23;19905;-78
2021/10/30 08:06:14;;;;;;;;;;;13.20;99.90;;;;;;6131857;23;19949;-78
2021/10/30 08:08:39;;;;;;;;;;;13.20;99.90;;;;;;6131201;23;19905;-78
2021/10/30 08:11:05;;;;;;;;;;;13.30;99.90;;;;;;6132609;23;19987;-78
2021/10/30 08:13:31;;;;;;;;;;;13.30;99.90;;;;;;6133483;23;19984;-77
2021/10/30 08:15:56;;;;;;;;;;;13.30;99.90;;;;;;6108193;23;19979;-77
2021/10/30 08:18:22;;;;;;;;;;;13.50;99.90;;;;;;6108322;23;19960;-78
2021/10/30 08:20:48;;;;;;;;;;;13.50;99.90;;;;;;6136492;23;19952;-80
2021/10/30 08:23:14;;;;;;;;;;;13.60;99.90;;;;;;6138389;23;19952;-77
2021/10/30 08:25:39;;;;;;;;;;;13.70;99.90;;;;;;6138251;23;19925;-78
2021/10/30 08:28:05;;;;;;;;;;;13.80;99.90;;;;;;6137998;23;19936;-78
2021/10/30 08:30:31;;;;;;;;;;;13.90;99.90;;;;;;6139000;23;19905;-78
2021/10/30 08:32:56;;;;;;;;;;;13.80;99.90;;;;;;6112777;23;19943;-78
2021/10/30 08:35:22;;;;;;;;;;;13.90;99.90;;;;;;6137809;23;19920;-77
2021/10/30 08:37:48;;;;;;;;;;;14.10;99.90;;;;;;6135887;23;19905;-78
2021/10/30 08:40:14;;;;;;;;;;;14.10;99.90;;;;;;6135241;23;19912;-80
2021/10/30 08:42:44;;;;;;;;;;;14.10;99.90;;;;;;6138703;23;19912;-77
2021/10/30 08:45:10;;;;;;;;;;;14.10;99.90;;;;;;6141941;23;19960;-78
2021/10/30 08:47:36;;;;;;;;;;;14.20;99.90;;;;;;6141771;23;19905;-78
2021/10/30 08:50:02;;;;;;;;;;;14.30;99.90;;;;;;6141327;23;19911;-77
2021/10/30 08:52:28;;;;;;;;;;;14.50;99.90;;;;;;6112691;23;19905;-78
2021/10/30 08:54:53;;;;;;;;;;;14.50;99.90;;;;;;6140949;23;19959;-78
2021/10/30 08:57:19;;;;;;;;;;;14.60;99.90;;;;;;6141459;23;19905;-77
2021/10/30 08:59:46;;;;;;;;;;;14.70;99.90;;;;;;6115547;23;19913;-78
2021/10/30 09:02:29;;;;;;;;;;;14.80;99.90;;;;;;6138475;23;19905;-78
2021/10/30 09:05:08;;;;;;;;;;;14.90;99.90;;;;;;6139944;23;20253;-78
2021/10/30 09:07:34;;;;;;;;;;;15.00;99.90;;;;;;6139775;23;19936;-78
2021/10/30 09:09:59;;;;;;;;;;;15.10;99.90;;;;;;6138234;23;20215;-77
2021/10/30 09:12:25;;;;;;;;;;;15.10;99.90;;;;;;6138411;23;19912;-78
2021/10/30 09:14:51;;;;;;;;;;;15.20;99.90;;;;;;6136809;23;19909;-78
2021/10/30 09:17:18;;;;;;;;;;;15.20;99.90;;;;;;6135901;23;19913;-77
2021/10/30 09:19:54;;;;;;;;;;;15.20;99.90;;;;;;6111415;23;19905;-77
2021/10/30 09:22:22;;;;;;;;;;;15.30;99.90;;;;;;6136579;23;19929;-77
2021/10/30 09:24:58;;;;;;;;;;;15.40;99.90;;;;;;6136021;23;19964;-77
2021/10/30 09:27:43;;;;;;;;;;;15.30;99.90;;;;;;6135814;23;19905;-77
2021/10/30 09:30:08;;;;;;;;;;;15.30;99.90;;;;;;6135391;23;20249;-78
2021/10/30 09:32:34;;;;;;;;;;;15.20;99.90;;;;;;6135853;23;19912;-78
2021/10/30 09:35:00;;;;;;;;;;;15.20;99.90;;;;;;6135062;23;19909;-77
2021/10/30 09:37:28;;;;;;;;;;;15.20;99.90;;;;;;6133735;23;19915;-78
2021/10/30 09:40:12;;;;;;;;;;;15.30;99.90;;;;;;6134767;23;19909;-77
2021/10/30 09:42:38;;;;;;;;;;;15.40;99.90;;;;;;6135362;23;19957;-82
2021/10/30 09:45:08;;;;;;;;;;;15.50;99.90;;;;;;6136419;23;19960;-78
2021/10/30 09:47:34;;;;;;;;;;;15.50;99.90;;;;;;6136366;23;19913;-76
2021/10/30 09:49:59;;;;;;;;;;;15.60;99.90;;;;;;6136932;23;19916;-79
2021/10/30 09:52:27;;;;;;;;;;;15.60;99.90;;;;;;6134190;23;19905;-78
2021/10/30 09:54:53;;;;;;;;;;;15.70;99.90;;;;;;6134595;23;19936;-77
2021/10/30 09:57:27;;;;;;;;;;;15.70;99.90;;;;;;6136616;23;19905;-78
2021/10/30 09:59:53;;;;;;;;;;;15.70;99.90;;;;;;6137180;23;19965;-78
2021/10/30 10:02:22;;;;;;;;;;;15.80;99.90;;;;;;6142986;23;19905;-77
2021/10/30 10:04:49;;;;;;;;;;;15.90;99.90;;;;;;6140998;23;19904;-77
2021/10/30 10:07:15;;;;;;;;;;;16.00;99.90;;;;;;6141298;23;19909;-77
2021/10/30 10:09:41;;;;;;;;;;;16.00;99.90;;;;;;6142130;23;19975;-77
2021/10/30 10:12:07;;;;;;;;;;;16.00;99.90;;;;;;6140087;23;20337;-78
2021/10/30 10:14:36;;;;;;;;;;;16.00;99.90;;;;;;6137198;23;19916;-78
2021/10/30 10:17:02;;;;;;;;;;;15.90;99.90;;;;;;6136535;23;19905;-77
2021/10/30 10:19:27;;;;;;;;;;;15.80;99.90;;;;;;6135973;23;19905;-77
2021/10/30 10:21:53;;;;;;;;;;;15.70;99.90;;;;;;6138059;23;19913;-78
2021/10/30 10:24:20;;;;;;;;;;;15.70;99.90;;;;;;6141662;23;19988;-76
2021/10/30 10:26:49;;;;;;;;;;;15.70;99.90;;;;;;6114879;23;19905;-77
2021/10/30 10:29:26;;;;;;;;;;;15.70;99.90;;;;;;6141900;23;19905;-77
2021/10/30 10:31:52;;;;;;;;;;;15.70;99.90;;;;;;6146235;23;19947;-77
2021/10/30 10:34:22;;;;;;;;;;;15.60;99.90;;;;;;6143129;23;19909;-78
2021/10/30 10:36:47;;;;;;;;;;;15.60;99.90;;;;;;6136606;23;19920;-78
2021/10/30 10:39:14;;;;;;;;;;;15.70;99.90;;;;;;6136312;23;19909;-78
2021/10/30 10:41:40;;;;;;;;;;;15.70;99.90;;;;;;6133054;23;19912;-77
2021/10/30 10:44:09;;;;;;;;;;;15.80;99.90;;;;;;6130249;23;20356;-78
2021/10/30 10:46:41;;;;;;;;;;;15.80;99.90;;;;;;6128229;23;19912;-77
2021/10/30 10:49:38;;;;;;;;;;;15.80;99.90;;;;;;6102061;23;19905;-77
2021/10/30 10:52:13;;;;;;;;;;;15.70;99.90;;;;;;6136862;23;19941;-78
2021/10/30 10:54:58;;;;;;;;;;;15.90;99.90;;;;;;6137089;23;19909;-77
2021/10/30 10:57:24;;;;;;;;;;;16.00;99.90;;;;;;6135793;23;20337;-78
2021/10/30 10:59:57;;;;;;;;;;;16.00;99.90;;;;;;6136570;23;19905;-79
2021/10/30 11:02:27;;;;;;;;;;;16.00;99.90;;;;;;6144161;23;19940;-80
2021/10/30 11:05:20;;;;;;;;;;;16.10;99.90;;;;;;6139513;23;19953;-79
2021/10/30 11:07:49;;;;;;;;;;;16.10;99.90;;;;;;6130386;23;19905;-79
2021/10/30 11:10:25;;;;;;;;;;;16.00;99.90;;;;;;6142831;23;19912;-79
2021/10/30 11:15:30;;;;;;;;;;;16.00;99.90;;;;;;6142885;23;19913;-79
2021/10/30 11:18:08;;;;;;;;;;;16.00;99.90;;;;;;6116147;23;19912;-79
2021/10/30 11:20:42;;;;;;;;;;;16.00;99.90;;;;;;6117797;23;19909;-78
2021/10/30 11:23:33;;;;;;;;;;;16.00;99.90;;;;;;6144225;23;19912;-78
2021/10/30 11:26:09;;;;;;;;;;;16.00;99.90;;;;;;6144991;23;19929;-76
2021/10/30 11:28:35;;;;;;;;;;;16.00;99.90;;;;;;6146647;23;19916;-78
2021/10/30 11:31:10;;;;;;;;;;;16.00;99.90;;;;;;6142495;23;20050;-79
2021/10/30 11:33:36;;;;;;;;;;;16.10;99.90;;;;;;6142805;23;19912;-76
2021/10/30 11:36:04;;;;;;;;;;;16.10;99.90;;;;;;6142194;23;19917;-76
2021/10/30 11:38:30;;;;;;;;;;;16.10;99.90;;;;;;6141632;23;19916;-79
2021/10/30 11:40:57;;;;;;;;;;;16.10;99.90;;;;;;6143149;23;19916;-80
2021/10/30 11:43:30;;;;;;;;;;;16.10;99.90;;;;;;6141079;23;19937;-81
2021/10/30 11:46:02;;;;;;;;;;;16.10;99.90;;;;;;6140345;23;19905;-80
2021/10/30 11:48:45;;;;;;;;;;;16.10;99.90;;;;;;6137455;23;19945;-79
2021/10/30 11:51:11;;;;;;;;;;;16.10;99.90;;;;;;6138540;23;20352;-79
2021/10/30 11:53:41;;;;;;;;;;;16.00;99.90;;;;;;6112648;23;19912;-79
2021/10/30 11:56:11;;;;;;;;;;;16.10;99.90;;;;;;6140867;23;19915;-82
2021/10/30 11:58:50;;;;;;;;;;;16.30;99.90;;;;;;6142436;23;19956;-78
2021/10/30 12:01:28;;;;;;;;;;;16.30;99.90;;;;;;6143227;23;19940;-78
2021/10/30 12:03:56;;;;;;;;;;;16.40;99.90;;;;;;6137045;23;20352;-78
2021/10/30 12:06:21;;;;;;;;;;;16.30;99.90;;;;;;6138810;23;19905;-78
2021/10/30 12:08:47;;;;;;;;;;;16.30;99.90;;;;;;6139772;23;19905;-77
2021/10/30 12:11:14;;;;;;;;;;;16.30;99.90;;;;;;6134402;23;19936;-78
2021/10/30 12:13:45;;;;;;;;;;;16.30;99.90;;;;;;6135256;23;19909;-78
2021/10/30 12:16:10;;;;;;;;;;;16.30;99.90;;;;;;6140731;23;19909;-78
2021/10/30 12:18:36;;;;;;;;;;;16.30;99.90;;;;;;6140691;23;19937;-79
2021/10/30 12:21:02;;;;;;;;;;;16.40;99.90;;;;;;6138763;23;19905;-78
2021/10/30 12:23:33;;;;;;;;;;;16.30;99.90;;;;;;6140892;23;19905;-78
2021/10/30 12:26:05;;;;;;;;;;;16.30;99.90;;;;;;6140306;23;19909;-78
2021/10/30 12:28:33;;;;;;;;;;;16.30;99.90;;;;;;6139986;23;19928;-78
2021/10/30 12:30:58;;;;;;;;;;;16.20;99.90;;;;;;6141881;23;19905;-80
2021/10/30 12:33:24;;;;;;;;;;;16.20;99.90;;;;;;6141312;23;19911;-78
2021/10/30 12:35:50;;;;;;;;;;;16.20;99.90;;;;;;6143556;23;19913;-77
2021/10/30 12:38:19;;;;;;;;;;;16.20;99.90;;;;;;6144545;23;19912;-77
2021/10/30 12:40:46;;;;;;;;;;;16.20;99.90;;;;;;6139810;23;19905;-78
2021/10/30 12:43:13;;;;;;;;;;;16.20;99.90;;;;;;6145392;23;19920;-77
2021/10/30 12:45:39;;;;;;;;;;;16.20;99.90;;;;;;6145708;23;19912;-78
2021/10/30 12:48:19;;;;;;;;;;;16.30;99.90;;;;;;6114832;23;19905;-78
2021/10/30 12:50:54;;;;;;;;;;;16.30;99.90;;;;;;6141269;23;19960;-77
2021/10/30 12:53:26;;;;;;;;;;;16.20;99.90;;;;;;6142279;23;19916;-78
2021/10/30 12:56:08;;;;;;;;;;;16.20;99.90;;;;;;6139888;23;19944;-78
2021/10/30 12:58:43;;;;;;;;;;;16.10;99.90;;;;;;6141423;23;20337;-78
2021/10/30 13:01:16;;;;;;;;;;;16.20;99.90;;;;;;6141315;23;19929;-78
2021/10/30 13:03:42;;;;;;;;;;;16.20;99.90;;;;;;6139224;23;19905;-78
2021/10/30 13:06:08;;;;;;;;;;;16.10;99.90;;;;;;6137086;23;19959;-77
2021/10/30 13:08:44;;;;;;;;;;;16.00;99.90;;;;;;6141450;23;19905;-77
2021/10/30 13:11:15;;;;;;;;;;;16.00;99.90;;;;;;6144623;23;19924;-78
2021/10/30 13:13:41;;;;;;;;;;;15.80;99.90;;;;;;6134982;23;19905;-78
2021/10/30 13:16:07;;;;;;;;;;;15.70;99.90;;;;;;6128789;23;19916;-78
2021/10/30 13:18:33;;;;;;;;;;;15.60;99.90;;;;;;6128630;23;20377;-77
2021/10/30 13:20:59;;;;;;;;;;;15.60;99.90;;;;;;6136277;23;19905;-77
2021/10/30 13:23:24;;;;;;;;;;;15.60;99.90;;;;;;6146136;23;19968;-77
2021/10/30 13:25:50;;;;;;;;;;;15.50;99.90;;;;;;6137763;23;19916;-77
2021/10/30 13:28:16;;;;;;;;;;;15.50;99.90;;;;;;6138388;23;20526;-77
2021/10/30 13:30:42;;;;;;;;;;;15.60;99.90;;;;;;6128698;23;20284;-77
2021/10/30 13:33:07;;;;;;;;;;;15.70;99.90;;;;;;6128328;23;19936;-78
2021/10/30 13:35:33;;;;;;;;;;;15.70;99.90;;;;;;6125622;23;19937;-78
2021/10/30 13:37:59;;;;;;;;;;;15.80;99.90;;;;;;6127947;23;19905;-78
2021/10/30 13:40:24;;;;;;;;;;;15.90;99.90;;;;;;6125446;23;19905;-78
2021/10/30 13:42:50;;;;;;;;;;;15.90;99.90;;;;;;6126440;23;20246;-78
2021/10/30 13:45:16;;;;;;;;;;;15.80;99.90;;;;;;6126820;23;19925;-77
2021/10/30 13:47:42;;;;;;;;;;;15.70;99.90;;;;;;6126395;23;19912;-78
2021/10/30 13:50:08;;;;;;;;;;;15.70;99.90;;;;;;6129032;23;20246;-78
2021/10/30 13:52:34;;;;;;;;;;;15.80;99.90;;;;;;6134044;23;19909;-78
2021/10/30 13:55:00;;;;;;;;;;;15.90;99.90;;;;;;6135401;23;19913;-78
2021/10/30 13:57:25;;;;;;;;;;;15.90;99.90;;;;;;6135335;23;19904;-78
2021/10/30 13:59:51;;;;;;;;;;;15.90;99.90;;;;;;6135015;23;19948;-78
2021/10/30 14:02:17;;;;;;;;;;;15.90;99.90;;;;;;6134867;23;19905;-77
2021/10/30 14:04:43;;;;;;;;;;;15.90;99.90;;;;;;6136370;23;19916;-78
2021/10/30 14:07:09;;;;;;;;;;;16.00;99.90;;;;;;6135301;23;19905;-78
2021/10/30 14:09:35;;;;;;;;;;;16.10;99.90;;;;;;6136851;23;19932;-78
2021/10/30 14:12:00;;;;;;;;;;;16.20;99.90;;;;;;6136859;23;19975;-78
2021/10/30 14:14:26;;;;;;;;;;;16.30;99.90;;;;;;6136992;23;19913;-78
2021/10/30 14:16:52;;;;;;;;;;;16.30;99.90;;;;;;6134704;23;19975;-78
2021/10/30 14:19:18;;;;;;;;;;;16.40;99.90;;;;;;6134328;23;19912;-78
2021/10/30 14:21:43;;;;;;;;;;;16.40;99.90;;;;;;6132446;23;19909;-77